sensor_id;sensor_type;location;lat;lon;timestamp;pressure;altitude;pressure_sealevel;temperature;humidity
37238;BME280;23129;49.662;8.448;2022-08-01T00:01:31;100605.00;;;23.91;48.95
37238;BME280;23129;49.662;8.448;2022-08-01T00:04:00;100605.13;;;23.90;49.11
37238;BME280;23129;49.662;8.448;2022-08-01T00:06:28;100608.78;;;23.89;49.18
37238;BME280;23129;49.662;8.448;2022-08-01T00:08:57;100605.38;;;23.87;49.52
37238;BME280;23129;49.662;8.448;2022-08-01T00:11:25;100605.63;;;23.84;49.68
37238;BME280;23129;49.662;8.448;2022-08-01T00:13:55;100608.44;;;23.82;49.52
37238;BME280;23129;49.662;8.448;2022-08-01T00:16:23;100608.53;;;23.81;49.94
37238;BME280;23129;49.662;8.448;2022-08-01T00:18:52;100604.41;;;23.77;50.31
37238;BME280;23129;49.662;8.448;2022-08-01T00:21:21;100614.41;;;23.75;50.30
37238;BME280;23129;49.662;8.448;2022-08-01T00:23:49;100610.28;;;23.71;50.31
37238;BME280;23129;49.662;8.448;2022-08-01T00:26:19;100610.47;;;23.67;50.41
37238;BME280;23129;49.662;8.448;2022-08-01T00:28:47;100612.41;;;23.65;50.82
37238;BME280;23129;49.662;8.448;2022-08-01T00:31:17;100605.63;;;23.61;50.55
37238;BME280;23129;49.662;8.448;2022-08-01T00:33:47;100609.53;;;23.57;51.08
37238;BME280;23129;49.662;8.448;2022-08-01T00:36:15;100611.56;;;23.54;51.14
37238;BME280;23129;49.662;8.448;2022-08-01T00:38:44;100611.13;;;23.49;51.09
37238;BME280;23129;49.662;8.448;2022-08-01T00:41:12;100610.47;;;23.45;51.57
37238;BME280;23129;49.662;8.448;2022-08-01T00:43:41;100611.84;;;23.39;51.36
37238;BME280;23129;49.662;8.448;2022-08-01T00:46:09;100617.53;;;23.35;51.91
37238;BME280;23129;49.662;8.448;2022-08-01T00:48:39;100615.97;;;23.32;51.87
37238;BME280;23129;49.662;8.448;2022-08-01T00:51:08;100614.50;;;23.28;51.80
37238;BME280;23129;49.662;8.448;2022-08-01T00:53:37;100613.75;;;23.26;52.05
37238;BME280;23129;49.662;8.448;2022-08-01T00:56:20;100614.97;;;23.22;52.15
37238;BME280;23129;49.662;8.448;2022-08-01T00:58:50;100621.44;;;23.19;52.24
37238;BME280;23129;49.662;8.448;2022-08-01T01:01:19;100618.00;;;23.17;52.19
37238;BME280;23129;49.662;8.448;2022-08-01T01:03:51;100617.41;;;23.14;52.46
37238;BME280;23129;49.662;8.448;2022-08-01T01:06:36;100616.91;;;23.09;52.41
37238;BME280;23129;49.662;8.448;2022-08-01T01:09:21;100619.81;;;23.06;52.72
37238;BME280;23129;49.662;8.448;2022-08-01T01:12:06;100617.50;;;23.01;52.73
37238;BME280;23129;49.662;8.448;2022-08-01T01:14:45;100613.47;;;22.95;53.19
37238;BME280;23129;49.662;8.448;2022-08-01T01:17:24;100617.44;;;22.90;53.63
37238;BME280;23129;49.662;8.448;2022-08-01T01:20:18;100622.28;;;22.85;53.55
37238;BME280;23129;49.662;8.448;2022-08-01T01:23:06;100619.00;;;22.81;53.69
37238;BME280;23129;49.662;8.448;2022-08-01T01:25:54;100621.06;;;22.77;53.65
37238;BME280;23129;49.662;8.448;2022-08-01T01:28:35;100630.06;;;22.76;53.92
37238;BME280;23129;49.662;8.448;2022-08-01T01:31:12;100624.91;;;22.73;54.13
37238;BME280;23129;49.662;8.448;2022-08-01T01:33:41;100627.81;;;22.70;54.31
37238;BME280;23129;49.662;8.448;2022-08-01T01:36:14;100629.78;;;22.68;54.63
37238;BME280;23129;49.662;8.448;2022-08-01T01:38:45;100632.69;;;22.65;54.51
37238;BME280;23129;49.662;8.448;2022-08-01T01:41:17;100630.25;;;22.62;54.65
37238;BME280;23129;49.662;8.448;2022-08-01T01:43:46;100633.16;;;22.59;54.63
37238;BME280;23129;49.662;8.448;2022-08-01T01:46:22;100637.00;;;22.55;54.50
37238;BME280;23129;49.662;8.448;2022-08-01T01:48:55;100638.09;;;22.52;55.03
37238;BME280;23129;49.662;8.448;2022-08-01T01:51:25;100641.97;;;22.48;55.32
37238;BME280;23129;49.662;8.448;2022-08-01T01:53:57;100643.28;;;22.43;55.62
37238;BME280;23129;49.662;8.448;2022-08-01T01:56:26;100646.53;;;22.35;55.62
37238;BME280;23129;49.662;8.448;2022-08-01T01:59:00;100646.09;;;22.28;55.76
37238;BME280;23129;49.662;8.448;2022-08-01T02:01:33;100637.81;;;22.20;56.17
37238;BME280;23129;49.662;8.448;2022-08-01T02:04:23;100649.78;;;22.15;56.40
37238;BME280;23129;49.662;8.448;2022-08-01T02:06:53;100649.16;;;22.11;56.51
37238;BME280;23129;49.662;8.448;2022-08-01T02:09:23;100647.66;;;22.07;56.84
37238;BME280;23129;49.662;8.448;2022-08-01T02:11:55;100648.72;;;22.04;56.94
37238;BME280;23129;49.662;8.448;2022-08-01T02:14:36;100646.41;;;22.00;57.20
37238;BME280;23129;49.662;8.448;2022-08-01T02:17:10;100644.81;;;21.97;56.91
37238;BME280;23129;49.662;8.448;2022-08-01T02:19:39;100655.63;;;21.96;57.37
37238;BME280;23129;49.662;8.448;2022-08-01T02:22:13;100653.88;;;21.95;57.12
37238;BME280;23129;49.662;8.448;2022-08-01T02:24:50;100656.47;;;21.96;57.16
37238;BME280;23129;49.662;8.448;2022-08-01T02:27:25;100659.97;;;21.97;57.25
37238;BME280;23129;49.662;8.448;2022-08-01T02:30:00;100659.00;;;21.98;57.39
37238;BME280;23129;49.662;8.448;2022-08-01T02:32:34;100659.00;;;21.98;57.48
37238;BME280;23129;49.662;8.448;2022-08-01T02:35:07;100660.97;;;21.96;57.64
37238;BME280;23129;49.662;8.448;2022-08-01T02:37:39;100660.97;;;21.96;57.58
37238;BME280;23129;49.662;8.448;2022-08-01T02:40:13;100652.19;;;21.94;57.81
37238;BME280;23129;49.662;8.448;2022-08-01T02:42:49;100654.09;;;21.92;57.73
37238;BME280;23129;49.662;8.448;2022-08-01T02:45:18;100649.63;;;21.92;57.73
37238;BME280;23129;49.662;8.448;2022-08-01T02:47:50;100651.44;;;21.92;57.85
37238;BME280;23129;49.662;8.448;2022-08-01T02:50:20;100656.91;;;21.90;57.98
37238;BME280;23129;49.662;8.448;2022-08-01T02:52:51;100650.91;;;21.86;58.16
37238;BME280;23129;49.662;8.448;2022-08-01T02:55:21;100648.38;;;21.85;58.24
37238;BME280;23129;49.662;8.448;2022-08-01T02:57:50;100655.00;;;21.79;58.39
37238;BME280;23129;49.662;8.448;2022-08-01T03:00:28;100659.69;;;21.76;58.54
37238;BME280;23129;49.662;8.448;2022-08-01T03:03:00;100659.28;;;21.69;58.85
37238;BME280;23129;49.662;8.448;2022-08-01T03:05:30;100657.78;;;21.65;58.96
37238;BME280;23129;49.662;8.448;2022-08-01T03:08:01;100655.47;;;21.60;59.01
37238;BME280;23129;49.662;8.448;2022-08-01T03:10:31;100653.00;;;21.57;59.26
37238;BME280;23129;49.662;8.448;2022-08-01T03:13:01;100658.66;;;21.53;59.54
37238;BME280;23129;49.662;8.448;2022-08-01T03:15:35;100661.53;;;21.50;59.81
37238;BME280;23129;49.662;8.448;2022-08-01T03:18:07;100667.09;;;21.47;59.47
37238;BME280;23129;49.662;8.448;2022-08-01T03:20:37;100661.13;;;21.43;59.75
37238;BME280;23129;49.662;8.448;2022-08-01T03:23:08;100670.19;;;21.40;59.86
37238;BME280;23129;49.662;8.448;2022-08-01T03:25:40;100669.44;;;21.38;59.82
37238;BME280;23129;49.662;8.448;2022-08-01T03:28:13;100665.06;;;21.37;59.99
37238;BME280;23129;49.662;8.448;2022-08-01T03:30:42;100662.53;;;21.36;60.16
37238;BME280;23129;49.662;8.448;2022-08-01T03:33:13;100666.75;;;21.38;60.11
37238;BME280;23129;49.662;8.448;2022-08-01T03:35:47;100670.19;;;21.40;60.13
37238;BME280;23129;49.662;8.448;2022-08-01T03:38:19;100663.88;;;21.41;60.02
37238;BME280;23129;49.662;8.448;2022-08-01T03:40:53;100670.94;;;21.42;59.79
37238;BME280;23129;49.662;8.448;2022-08-01T03:43:30;100669.97;;;21.43;60.04
37238;BME280;23129;49.662;8.448;2022-08-01T03:46:06;100670.59;;;21.47;60.01
37238;BME280;23129;49.662;8.448;2022-08-01T03:48:40;100669.53;;;21.50;59.98
37238;BME280;23129;49.662;8.448;2022-08-01T03:51:11;100665.91;;;21.51;60.31
37238;BME280;23129;49.662;8.448;2022-08-01T03:53:42;100664.75;;;21.55;60.08
37238;BME280;23129;49.662;8.448;2022-08-01T03:56:13;100666.34;;;21.57;60.04
37238;BME280;23129;49.662;8.448;2022-08-01T03:58:46;100663.34;;;21.62;60.07
37238;BME280;23129;49.662;8.448;2022-08-01T04:01:17;100657.78;;;21.65;60.04
37238;BME280;23129;49.662;8.448;2022-08-01T04:03:47;100651.38;;;21.68;60.06
37238;BME280;23129;49.662;8.448;2022-08-01T04:06:16;100653.94;;;21.69;60.08
37238;BME280;23129;49.662;8.448;2022-08-01T04:08:45;100661.75;;;21.72;59.94
37238;BME280;23129;49.662;8.448;2022-08-01T04:11:24;100662.47;;;21.74;59.94
37238;BME280;23129;49.662;8.448;2022-08-01T04:13:53;100664.06;;;21.77;60.01
37238;BME280;23129;49.662;8.448;2022-08-01T04:16:23;100663.97;;;21.78;60.02
37238;BME280;23129;49.662;8.448;2022-08-01T04:18:53;100669.09;;;21.81;59.82
37238;BME280;23129;49.662;8.448;2022-08-01T04:21:26;100666.22;;;21.84;60.03
37238;BME280;23129;49.662;8.448;2022-08-01T04:23:59;100669.59;;;21.86;60.06
37238;BME280;23129;49.662;8.448;2022-08-01T04:26:28;100665.88;;;21.89;60.06
37238;BME280;23129;49.662;8.448;2022-08-01T04:28:58;100664.78;;;21.92;60.10
37238;BME280;23129;49.662;8.448;2022-08-01T04:31:30;100676.97;;;21.96;60.03
37238;BME280;23129;49.662;8.448;2022-08-01T04:34:02;100682.09;;;21.99;60.11
37238;BME280;23129;49.662;8.448;2022-08-01T04:36:34;100681.88;;;22.02;60.19
37238;BME280;23129;49.662;8.448;2022-08-01T04:39:05;100680.91;;;22.03;60.16
37238;BME280;23129;49.662;8.448;2022-08-01T04:41:34;100686.13;;;22.04;60.34
37238;BME280;23129;49.662;8.448;2022-08-01T04:44:04;100685.19;;;22.05;60.30
37238;BME280;23129;49.662;8.448;2022-08-01T04:46:34;100692.13;;;22.08;60.28
37238;BME280;23129;49.662;8.448;2022-08-01T04:49:08;100690.19;;;22.10;60.14
37238;BME280;23129;49.662;8.448;2022-08-01T04:51:50;100689.22;;;22.11;60.24
37238;BME280;23129;49.662;8.448;2022-08-01T04:54:19;100693.38;;;22.15;60.24
37238;BME280;23129;49.662;8.448;2022-08-01T04:56:48;100697.75;;;22.16;60.46
37238;BME280;23129;49.662;8.448;2022-08-01T04:59:17;100696.84;;;22.17;60.54
37238;BME280;23129;49.662;8.448;2022-08-01T05:02:03;100701.22;;;22.18;60.45
37238;BME280;23129;49.662;8.448;2022-08-01T05:04:34;100701.97;;;22.20;60.58
37238;BME280;23129;49.662;8.448;2022-08-01T05:07:03;100699.16;;;22.22;60.33
37238;BME280;23129;49.662;8.448;2022-08-01T05:09:32;100700.88;;;22.23;60.43
37238;BME280;23129;49.662;8.448;2022-08-01T05:12:01;100699.16;;;22.22;60.74
37238;BME280;23129;49.662;8.448;2022-08-01T05:14:31;100694.88;;;22.19;60.93
37238;BME280;23129;49.662;8.448;2022-08-01T05:17:01;100696.84;;;22.17;60.91
37238;BME280;23129;49.662;8.448;2022-08-01T05:19:30;100704.06;;;22.15;61.26
37238;BME280;23129;49.662;8.448;2022-08-01T05:22:03;100703.22;;;22.15;61.27
37238;BME280;23129;49.662;8.448;2022-08-01T05:24:33;100703.22;;;22.15;61.11
37238;BME280;23129;49.662;8.448;2022-08-01T05:27:03;100703.22;;;22.15;61.17
37238;BME280;23129;49.662;8.448;2022-08-01T05:29:34;100708.44;;;22.16;61.52
37238;BME280;23129;49.662;8.448;2022-08-01T05:32:07;100705.75;;;22.16;61.31
37238;BME280;23129;49.662;8.448;2022-08-01T05:34:36;100717.25;;;22.18;61.38
37238;BME280;23129;49.662;8.448;2022-08-01T05:37:06;100709.97;;;22.20;61.19
37238;BME280;23129;49.662;8.448;2022-08-01T05:39:35;100709.84;;;22.22;61.19
37238;BME280;23129;49.662;8.448;2022-08-01T05:42:03;100717.00;;;22.21;61.24
37238;BME280;23129;49.662;8.448;2022-08-01T05:44:32;100718.72;;;22.22;61.50
37238;BME280;23129;49.662;8.448;2022-08-01T05:47:00;100712.41;;;22.23;61.50
37238;BME280;23129;49.662;8.448;2022-08-01T05:49:29;100709.63;;;22.25;61.25
37238;BME280;23129;49.662;8.448;2022-08-01T05:51:58;100715.59;;;22.28;61.25
37238;BME280;23129;49.662;8.448;2022-08-01T05:54:29;100708.31;;;22.30;61.28
37238;BME280;23129;49.662;8.448;2022-08-01T05:56:58;100710.03;;;22.31;61.21
37238;BME280;23129;49.662;8.448;2022-08-01T05:59:29;100700.09;;;22.33;61.07
37238;BME280;23129;49.662;8.448;2022-08-01T06:01:58;100716.88;;;22.36;61.14
37238;BME280;23129;49.662;8.448;2022-08-01T06:04:27;100714.19;;;22.36;61.12
37238;BME280;23129;49.662;8.448;2022-08-01T06:06:55;100722.00;;;22.39;61.14
37238;BME280;23129;49.662;8.448;2022-08-01T06:09:23;100721.88;;;22.40;61.34
37238;BME280;23129;49.662;8.448;2022-08-01T06:11:53;100723.47;;;22.43;61.03
37238;BME280;23129;49.662;8.448;2022-08-01T06:14:21;100718.88;;;22.45;61.14
37238;BME280;23129;49.662;8.448;2022-08-01T06:16:50;100723.25;;;22.46;61.00
37238;BME280;23129;49.662;8.448;2022-08-01T06:19:18;100720.47;;;22.47;60.85
37238;BME280;23129;49.662;8.448;2022-08-01T06:21:46;100730.09;;;22.50;61.18
37238;BME280;23129;49.662;8.448;2022-08-01T06:24:15;100728.13;;;22.52;60.85
37238;BME280;23129;49.662;8.448;2022-08-01T06:26:43;100724.28;;;22.56;60.95
37238;BME280;23129;49.662;8.448;2022-08-01T06:29:13;100723.84;;;22.62;60.81
37238;BME280;23129;49.662;8.448;2022-08-01T06:31:41;100732.34;;;22.67;60.73
37238;BME280;23129;49.662;8.448;2022-08-01T06:34:09;100732.13;;;22.70;60.44
37238;BME280;23129;49.662;8.448;2022-08-01T06:36:38;100726.34;;;22.76;60.52
37238;BME280;23129;49.662;8.448;2022-08-01T06:39:06;100734.84;;;22.82;60.29
37238;BME280;23129;49.662;8.448;2022-08-01T06:41:34;100729.06;;;22.88;60.18
37238;BME280;23129;49.662;8.448;2022-08-01T06:44:03;100733.88;;;22.95;60.11
37238;BME280;23129;49.662;8.448;2022-08-01T06:46:35;100729.66;;;23.04;60.08
37238;BME280;23129;49.662;8.448;2022-08-01T06:49:03;100737.69;;;23.15;59.69
37238;BME280;23129;49.662;8.448;2022-08-01T06:51:31;100735.28;;;23.23;59.77
37238;BME280;23129;49.662;8.448;2022-08-01T06:54:00;100743.38;;;23.35;59.66
37238;BME280;23129;49.662;8.448;2022-08-01T06:56:28;100747.78;;;23.47;59.55
37238;BME280;23129;49.662;8.448;2022-08-01T06:58:57;100751.22;;;23.60;59.34
37238;BME280;23129;49.662;8.448;2022-08-01T07:01:28;100743.22;;;23.72;58.81
37238;BME280;23129;49.662;8.448;2022-08-01T07:04:02;100748.34;;;23.86;58.66
37238;BME280;23129;49.662;8.448;2022-08-01T07:06:31;100745.44;;;24.00;58.14
37238;BME280;23129;49.662;8.448;2022-08-01T07:08:59;100741.41;;;24.17;57.92
37238;BME280;23129;49.662;8.448;2022-08-01T07:11:38;100742.63;;;24.35;57.49
37238;BME280;23129;49.662;8.448;2022-08-01T07:14:06;100741.25;;;24.52;57.55
37238;BME280;23129;49.662;8.448;2022-08-01T07:16:35;100747.91;;;24.69;56.71
37238;BME280;23129;49.662;8.448;2022-08-01T07:19:04;100736.75;;;24.85;56.50
37238;BME280;23129;49.662;8.448;2022-08-01T07:21:33;100741.34;;;24.94;56.20
37238;BME280;23129;49.662;8.448;2022-08-01T07:24:10;100739.41;;;24.96;56.17
37238;BME280;23129;49.662;8.448;2022-08-01T07:26:42;100728.09;;;24.93;56.04
37238;BME280;23129;49.662;8.448;2022-08-01T07:29:22;100721.72;;;24.94;56.06
37238;BME280;23129;49.662;8.448;2022-08-01T07:31:51;100720.84;;;25.04;56.27
37238;BME280;23129;49.662;8.448;2022-08-01T07:34:22;100721.47;;;25.29;55.41
37238;BME280;23129;49.662;8.448;2022-08-01T07:36:51;100717.78;;;25.51;55.38
37238;BME280;23129;49.662;8.448;2022-08-01T07:39:20;100724.56;;;25.76;54.92
37238;BME280;23129;49.662;8.448;2022-08-01T07:41:48;100724.56;;;25.97;54.42
37238;BME280;23129;49.662;8.448;2022-08-01T07:44:33;100719.47;;;26.04;54.13
37238;BME280;23129;49.662;8.448;2022-08-01T07:47:02;100717.25;;;26.09;54.25
37238;BME280;23129;49.662;8.448;2022-08-01T07:49:32;100724.59;;;26.07;53.94
37238;BME280;23129;49.662;8.448;2022-08-01T07:52:07;100728.53;;;26.03;54.22
37238;BME280;23129;49.662;8.448;2022-08-01T07:54:35;100732.00;;;25.93;54.12
37238;BME280;23129;49.662;8.448;2022-08-01T07:57:04;100724.75;;;25.84;54.32
37238;BME280;23129;49.662;8.448;2022-08-01T07:59:33;100725.50;;;25.86;54.27
37238;BME280;23129;49.662;8.448;2022-08-01T08:02:02;100719.13;;;25.87;54.14
37238;BME280;23129;49.662;8.448;2022-08-01T08:04:33;100726.22;;;25.88;53.72
37238;BME280;23129;49.662;8.448;2022-08-01T08:07:01;100722.97;;;25.94;53.97
37238;BME280;23129;49.662;8.448;2022-08-01T08:09:30;100730.25;;;26.04;53.54
37238;BME280;23129;49.662;8.448;2022-08-01T08:12:05;100726.00;;;26.11;53.56
37238;BME280;23129;49.662;8.448;2022-08-01T08:14:35;100726.06;;;26.21;53.37
37238;BME280;23129;49.662;8.448;2022-08-01T08:17:04;100723.81;;;26.35;52.69
37238;BME280;23129;49.662;8.448;2022-08-01T08:19:33;100726.69;;;26.53;52.51
37238;BME280;23129;49.662;8.448;2022-08-01T08:22:06;100729.44;;;26.73;51.91
37238;BME280;23129;49.662;8.448;2022-08-01T08:24:37;100726.19;;;26.89;51.59
37238;BME280;23129;49.662;8.448;2022-08-01T08:27:13;100723.88;;;27.13;51.10
37238;BME280;23129;49.662;8.448;2022-08-01T08:29:41;100723.03;;;27.42;50.71
37238;BME280;23129;49.662;8.448;2022-08-01T08:32:11;100727.66;;;27.79;49.96
37238;BME280;23129;49.662;8.448;2022-08-01T08:34:41;100723.69;;;28.10;49.21
37238;BME280;23129;49.662;8.448;2022-08-01T08:37:09;100722.47;;;28.22;49.11
37238;BME280;23129;49.662;8.448;2022-08-01T08:39:38;100726.78;;;28.15;49.17
37238;BME280;23129;49.662;8.448;2022-08-01T08:42:09;100723.75;;;28.01;49.40
37238;BME280;23129;49.662;8.448;2022-08-01T08:44:39;100713.56;;;27.94;49.54
37238;BME280;23129;49.662;8.448;2022-08-01T08:47:12;100716.84;;;27.88;49.54
37238;BME280;23129;49.662;8.448;2022-08-01T08:49:50;100719.97;;;27.84;49.53
37238;BME280;23129;49.662;8.448;2022-08-01T08:52:20;100720.69;;;27.86;49.33
37238;BME280;23129;49.662;8.448;2022-08-01T08:54:50;100722.97;;;27.81;49.54
37238;BME280;23129;49.662;8.448;2022-08-01T08:57:20;100720.53;;;27.77;49.10
37238;BME280;23129;49.662;8.448;2022-08-01T08:59:49;100717.41;;;27.72;49.11
37238;BME280;23129;49.662;8.448;2022-08-01T09:02:21;100723.94;;;27.70;49.05
37238;BME280;23129;49.662;8.448;2022-08-01T09:04:51;100721.25;;;27.70;49.10
37238;BME280;23129;49.662;8.448;2022-08-01T09:07:19;100715.44;;;27.74;48.83
37238;BME280;23129;49.662;8.448;2022-08-01T09:09:50;100716.56;;;27.82;48.57
37238;BME280;23129;49.662;8.448;2022-08-01T09:12:19;100711.03;;;27.83;48.36
37238;BME280;23129;49.662;8.448;2022-08-01T09:14:48;100712.56;;;27.76;48.45
37238;BME280;23129;49.662;8.448;2022-08-01T09:17:20;100716.75;;;27.70;48.61
37238;BME280;23129;49.662;8.448;2022-08-01T09:19:52;100714.34;;;27.67;48.65
37238;BME280;23129;49.662;8.448;2022-08-01T09:22:25;100724.13;;;27.68;48.48
37238;BME280;23129;49.662;8.448;2022-08-01T09:25:04;100732.50;;;27.65;48.63
37238;BME280;23129;49.662;8.448;2022-08-01T09:27:34;100738.19;;;27.62;48.49
37238;BME280;23129;49.662;8.448;2022-08-01T09:30:13;100737.16;;;27.63;48.64
37238;BME280;23129;49.662;8.448;2022-08-01T09:32:55;100738.59;;;27.67;48.43
37238;BME280;23129;49.662;8.448;2022-08-01T09:35:27;100740.28;;;27.78;48.21
37238;BME280;23129;49.662;8.448;2022-08-01T09:38:21;100736.84;;;27.86;48.08
37238;BME280;23129;49.662;8.448;2022-08-01T09:40:52;100741.06;;;27.98;47.70
37238;BME280;23129;49.662;8.448;2022-08-01T09:43:23;100742.56;;;28.10;47.46
37238;BME280;23129;49.662;8.448;2022-08-01T09:45:54;100735.47;;;28.37;46.80
37238;BME280;23129;49.662;8.448;2022-08-01T09:48:25;100732.44;;;28.67;46.21
37238;BME280;23129;49.662;8.448;2022-08-01T09:50:59;100730.84;;;29.10;45.69
37238;BME280;23129;49.662;8.448;2022-08-01T09:53:44;100735.75;;;29.33;44.97
37238;BME280;23129;49.662;8.448;2022-08-01T09:56:20;100736.78;;;29.32;45.22
37238;BME280;23129;49.662;8.448;2022-08-01T09:58:51;100736.47;;;29.35;45.23
37238;BME280;23129;49.662;8.448;2022-08-01T10:01:27;100729.91;;;29.64;44.44
37238;BME280;23129;49.662;8.448;2022-08-01T10:04:10;100726.25;;;30.50;43.60
37238;BME280;23129;49.662;8.448;2022-08-01T10:06:42;100727.19;;;31.40;41.85
37238;BME280;23129;49.662;8.448;2022-08-01T10:09:13;100717.22;;;32.04;40.62
37238;BME280;23129;49.662;8.448;2022-08-01T10:11:42;100719.41;;;32.71;39.67
37238;BME280;23129;49.662;8.448;2022-08-01T10:14:12;100718.31;;;33.27;39.24
37238;BME280;23129;49.662;8.448;2022-08-01T10:16:45;100715.16;;;33.00;38.99
37238;BME280;23129;49.662;8.448;2022-08-01T10:19:31;100722.78;;;32.50;40.16
37238;BME280;23129;49.662;8.448;2022-08-01T10:22:01;100717.72;;;32.08;40.74
37238;BME280;23129;49.662;8.448;2022-08-01T10:24:37;100715.03;;;32.00;40.83
37238;BME280;23129;49.662;8.448;2022-08-01T10:27:08;100717.44;;;32.34;39.94
37238;BME280;23129;49.662;8.448;2022-08-01T10:29:46;100718.81;;;32.61;39.58
37238;BME280;23129;49.662;8.448;2022-08-01T10:32:34;100708.72;;;32.93;39.38
37238;BME280;23129;49.662;8.448;2022-08-01T10:35:07;100707.69;;;33.17;38.58
37238;BME280;23129;49.662;8.448;2022-08-01T10:37:44;100699.31;;;33.04;38.89
37238;BME280;23129;49.662;8.448;2022-08-01T10:40:19;100707.34;;;32.97;38.83
37238;BME280;23129;49.662;8.448;2022-08-01T10:42:58;100707.22;;;33.13;38.45
37238;BME280;23129;49.662;8.448;2022-08-01T10:45:27;100702.56;;;33.37;37.95
37238;BME280;23129;49.662;8.448;2022-08-01T10:48:04;100699.06;;;33.81;37.74
37238;BME280;23129;49.662;8.448;2022-08-01T10:50:41;100705.81;;;34.15;36.98
37238;BME280;23129;49.662;8.448;2022-08-01T10:53:18;100689.22;;;34.31;36.74
37238;BME280;23129;49.662;8.448;2022-08-01T10:56:07;100684.16;;;34.28;36.62
37238;BME280;23129;49.662;8.448;2022-08-01T10:58:43;100691.38;;;34.36;36.57
37238;BME280;23129;49.662;8.448;2022-08-01T11:01:25;100686.81;;;34.58;36.40
37238;BME280;23129;49.662;8.448;2022-08-01T11:04:11;100684.09;;;35.01;35.74
37238;BME280;23129;49.662;8.448;2022-08-01T11:06:54;100682.03;;;35.31;35.22
37238;BME280;23129;49.662;8.448;2022-08-01T11:09:40;100676.25;;;35.75;34.73
37238;BME280;23129;49.662;8.448;2022-08-01T11:12:14;100677.41;;;36.01;33.92
37238;BME280;23129;49.662;8.448;2022-08-01T11:15:17;100674.13;;;36.12;34.02
37238;BME280;23129;49.662;8.448;2022-08-01T11:18:02;100673.00;;;36.00;33.84
37238;BME280;23129;49.662;8.448;2022-08-01T11:20:33;100676.06;;;35.83;33.91
37238;BME280;23129;49.662;8.448;2022-08-01T11:23:18;100681.13;;;35.52;34.74
37238;BME280;23129;49.662;8.448;2022-08-01T11:26:09;100674.69;;;35.31;34.52
37238;BME280;23129;49.662;8.448;2022-08-01T11:28:39;100670.69;;;35.55;34.18
37238;BME280;23129;49.662;8.448;2022-08-01T11:31:29;100660.78;;;35.96;33.39
37238;BME280;23129;49.662;8.448;2022-08-01T11:34:04;100648.72;;;36.18;32.77
37238;BME280;23129;49.662;8.448;2022-08-01T11:36:33;100656.75;;;36.40;32.99
37238;BME280;23129;49.662;8.448;2022-08-01T11:39:22;100656.81;;;36.53;32.30
37238;BME280;23129;49.662;8.448;2022-08-01T11:41:51;100652.53;;;36.44;32.43
37238;BME280;23129;49.662;8.448;2022-08-01T11:44:24;100646.97;;;36.04;32.35
37238;BME280;23129;49.662;8.448;2022-08-01T11:47:03;100651.13;;;35.93;32.48
37238;BME280;23129;49.662;8.448;2022-08-01T11:49:48;100650.22;;;35.79;32.73
37238;BME280;23129;49.662;8.448;2022-08-01T11:52:28;100643.50;;;35.75;32.67
37238;BME280;23129;49.662;8.448;2022-08-01T11:55:05;100643.81;;;35.59;32.42
37238;BME280;23129;49.662;8.448;2022-08-01T11:57:38;100641.34;;;35.64;32.81
37238;BME280;23129;49.662;8.448;2022-08-01T12:00:12;100638.25;;;35.80;32.32
37238;BME280;23129;49.662;8.448;2022-08-01T12:02:44;100643.13;;;35.92;32.14
37238;BME280;23129;49.662;8.448;2022-08-01T12:05:15;100628.72;;;35.63;32.43
37238;BME280;23129;49.662;8.448;2022-08-01T12:07:52;100632.91;;;35.03;32.73
37238;BME280;23129;49.662;8.448;2022-08-01T12:10:24;100632.59;;;34.63;33.27
37238;BME280;23129;49.662;8.448;2022-08-01T12:12:59;100633.84;;;34.45;33.37
37238;BME280;23129;49.662;8.448;2022-08-01T12:15:31;100633.72;;;34.53;33.20
37238;BME280;23129;49.662;8.448;2022-08-01T12:18:01;100629.28;;;34.67;32.92
37238;BME280;23129;49.662;8.448;2022-08-01T12:20:34;100627.97;;;34.63;32.89
37238;BME280;23129;49.662;8.448;2022-08-01T12:23:09;100635.56;;;34.46;32.90
37238;BME280;23129;49.662;8.448;2022-08-01T12:25:40;100640.06;;;34.18;33.13
37238;BME280;23129;49.662;8.448;2022-08-01T12:28:12;100633.94;;;33.79;33.75
37238;BME280;23129;49.662;8.448;2022-08-01T12:30:41;100627.97;;;33.54;33.75
37238;BME280;23129;49.662;8.448;2022-08-01T12:33:16;100627.13;;;33.54;33.73
37238;BME280;23129;49.662;8.448;2022-08-01T12:35:44;100616.22;;;33.69;33.61
37238;BME280;23129;49.662;8.448;2022-08-01T12:38:16;100615.50;;;33.96;33.62
37238;BME280;23129;49.662;8.448;2022-08-01T12:40:46;100622.06;;;33.51;33.97
37238;BME280;23129;49.662;8.448;2022-08-01T12:43:22;100622.22;;;32.96;34.77
37238;BME280;23129;49.662;8.448;2022-08-01T12:45:55;100624.63;;;32.77;35.05
37238;BME280;23129;49.662;8.448;2022-08-01T12:48:25;100618.16;;;32.78;34.91
37238;BME280;23129;49.662;8.448;2022-08-01T12:50:56;100623.78;;;32.76;35.01
37238;BME280;23129;49.662;8.448;2022-08-01T12:53:27;100618.94;;;32.86;34.76
37238;BME280;23129;49.662;8.448;2022-08-01T12:56:09;100622.09;;;33.28;34.44
37238;BME280;23129;49.662;8.448;2022-08-01T12:58:39;100624.84;;;33.57;34.05
37238;BME280;23129;49.662;8.448;2022-08-01T13:01:10;100625.13;;;33.62;33.89
37238;BME280;23129;49.662;8.448;2022-08-01T13:03:40;100615.38;;;33.53;34.23
37238;BME280;23129;49.662;8.448;2022-08-01T13:06:13;100614.41;;;33.76;33.71
37238;BME280;23129;49.662;8.448;2022-08-01T13:08:45;100605.25;;;33.98;33.38
37238;BME280;23129;49.662;8.448;2022-08-01T13:11:14;100613.09;;;34.23;33.09
37238;BME280;23129;49.662;8.448;2022-08-01T13:13:48;100607.00;;;34.21;33.01
37238;BME280;23129;49.662;8.448;2022-08-01T13:16:18;100615.28;;;34.13;33.09
37238;BME280;23129;49.662;8.448;2022-08-01T13:19:07;100609.78;;;33.91;33.28